Buoy 41609

sailwx.info

Track history (hours):
 
Tides and Currents Weather Stations Pressure Air Temp Water Temp Dewpoint Dewpoint Depression Visibility Wind Speed Wind Dir Waves Ship Positions

Drifting buoy 41609

Last reported at 2014-Oct-31 18:00 UTC. Time now 2014-Nov-01 02:39 UTC.
Position N 39°40' W 071°19'.

Water temperature 19.9 ° C

Date/timePositionNaut miles runAvg speedWind from/ knotsBaromVisibWave heightAir tempDewpointWater temp
2014-Oct-31 18:00N 39°40' W 071°19'0 0.3 19.9
2014-Oct-31 17:00N 39°40' W 071°19'0 0.1 19.9
2014-Oct-31 16:00N 39°40' W 071°20'0 0.3 19.9
2014-Oct-31 15:00N 39°40' W 071°20'0 0.0 19.9
2014-Oct-31 14:00N 39°40' W 071°20'2 0.4 19.9
2014-Oct-31 10:00N 39°38' W 071°21'0 0.2 19.9
2014-Oct-31 09:00N 39°39' W 071°21'1 0.5 19.9
2014-Oct-31 08:00N 39°38' W 071°21'0 0.4 19.9
2014-Oct-31 07:00N 39°39' W 071°21'0 0.0 19.9
2014-Oct-31 02:00N 39°39' W 071°21'1 1.3 19.9
2014-Oct-31 01:00N 39°38' W 071°23'0 0.0 20.0
2014-Oct-31 00:00N 39°38' W 071°23'0 0.0 20.0
2014-Oct-30 23:00N 39°38' W 071°23'0 0.2 20.0
2014-Oct-30 22:00N 39°38' W 071°23'2 1.0 20.0
2014-Oct-30 20:00N 39°37' W 071°25'2 0.9 20.0
2014-Oct-30 18:00N 39°36' W 071°26'0 0.0 20.0
2014-Oct-30 17:00N 39°36' W 071°26'0 0.0 20.0
2014-Oct-30 16:00N 39°36' W 071°26'2 1.0 20.0
2014-Oct-30 14:00N 39°34' W 071°26'0 0.0 20.0
2014-Oct-30 13:00N 39°34' W 071°26'0 0.1 20.0
2014-Oct-30 11:00N 39°34' W 071°25'0 0.4 20.0
2014-Oct-30 10:00N 39°34' W 071°25'0 0.2 20.0
2014-Oct-30 09:00N 39°34' W 071°25'1 1.5 20.0
2014-Oct-30 08:00N 39°33' W 071°27'0 0.0 20.0
2014-Oct-30 07:00N 39°33' W 071°27'0 0.0 20.0
2014-Oct-30 00:00N 39°33' W 071°27'1 0.9 20.0
2014-Oct-29 23:00N 39°32' W 071°27'0 0.0 20.0
2014-Oct-29 22:00N 39°32' W 071°27'2 0.4 20.0
2014-Oct-29 17:00N 39°31' W 071°28'0 0.3 20.0
2014-Oct-29 16:00N 39°30' W 071°27'0 0.0 20.0
2014-Oct-29 15:00N 39°30' W 071°27'1 0.3 20.0
2014-Oct-29 11:00N 39°31' W 071°29'1 0.7 19.9
2014-Oct-29 10:00N 39°31' W 071°30'1 0.7 19.9
2014-Oct-29 09:00N 39°30' W 071°31'2 1.2 19.9
2014-Oct-29 07:00N 39°28' W 071°31'0 0.0 19.9
2014-Oct-29 05:00N 39°28' W 071°31'1 0.2 19.9
2014-Oct-29 02:00N 39°27' W 071°31'1 0.9 20.0
2014-Oct-29 01:00N 39°28' W 071°30'2 1.5 20.0
2014-Oct-29 00:00N 39°28' W 071°32'0 0.0 20.0
2014-Oct-28 23:00N 39°28' W 071°32'0 0.0 20.0
2014-Oct-28 22:00N 39°28' W 071°32'1 1.0 20.0
2014-Oct-28 21:00N 39°27' W 071°33'1 0.3 20.0
2014-Oct-28 19:00N 39°27' W 071°34'0 0.0 20.0
2014-Oct-28 18:00N 39°27' W 071°34'0 0.0 20.0
2014-Oct-28 16:00N 39°27' W 071°34'1 0.7 20.0
2014-Oct-28 14:00N 39°26' W 071°35'0 0.0 20.0
2014-Oct-28 13:00N 39°26' W 071°35'0 0.2 20.0
2014-Oct-28 11:00N 39°26' W 071°36'0 0.4 19.9
2014-Oct-28 10:00N 39°26' W 071°36'0 0.3 20.0
2014-Oct-28 09:00N 39°25' W 071°36'0 0.5 19.9
2014-Oct-28 08:00N 39°25' W 071°36'1 1.1 20.0
2014-Oct-28 07:00N 39°24' W 071°35'0 0.0 20.0
2014-Oct-28 03:00N 39°24' W 071°35'0 0.4 20.0
2014-Oct-28 02:00N 39°25' W 071°35'0 0.0 20.0
2014-Oct-28 01:00N 39°25' W 071°35'1 0.3 20.0
2014-Oct-27 23:00N 39°25' W 071°35'1 0.7 20.0
2014-Oct-27 22:00N 39°26' W 071°35'0 0.4 20.0
2014-Oct-27 21:00N 39°26' W 071°36'1 0.7 20.0
2014-Oct-27 20:00N 39°26' W 071°37'0 0.3 20.0
2014-Oct-27 19:00N 39°26' W 071°36'1 1.0 20.1
2014-Oct-27 18:00N 39°25' W 071°38'0 0.0 20.0
2014-Oct-27 17:00N 39°25' W 071°38'0 0.2 20.0
2014-Oct-27 15:00N 39°25' W 071°37'0 0.4 20.0
2014-Oct-27 14:00N 39°25' W 071°37'0 0.1 20.0
2014-Oct-27 11:00N 39°25' W 071°37'1 0.6 20.0
2014-Oct-27 09:00N 39°27' W 071°37'0 0.0 20.0
2014-Oct-27 08:00N 39°27' W 071°37'1 0.5 20.1
2014-Oct-27 06:00N 39°27' W 071°37'0 0.0 20.1
2014-Oct-27 05:00N 39°27' W 071°37'1 0.2 20.1
2014-Oct-27 01:00N 39°28' W 071°37'1 0.6 20.2
2014-Oct-26 23:00N 39°29' W 071°37'0 0.4 20.3
2014-Oct-26 22:00N 39°30' W 071°37'0 0.4 20.3
2014-Oct-26 21:00N 39°30' W 071°37'0 0.0 20.3
2014-Oct-26 20:00N 39°30' W 071°37'3 2.6 20.3
2014-Oct-26 19:00N 39°32' W 071°36'0 0.0 20.3
2014-Oct-26 17:00N 39°32' W 071°36'2 0.6 20.3
2014-Oct-26 14:00N 39°33' W 071°33'0 0.0 20.4
2014-Oct-26 11:00N 39°33' W 071°33'1 0.7 20.4
2014-Oct-26 10:00N 39°34' W 071°33'2 0.5 20.4
2014-Oct-26 07:00N 39°35' W 071°32'4 0.9 20.4
2014-Oct-26 03:00N 39°38' W 071°34'0 0.0 20.5
2014-Oct-26 02:00N 39°38' W 071°34'0 0.0 20.5
2014-Oct-26 01:00N 39°38' W 071°34'2 0.5 20.5
2014-Oct-25 21:00N 39°37' W 071°32'0 0.0 20.6
2014-Oct-25 20:00N 39°37' W 071°32'0 0.0 20.6
2014-Oct-25 19:00N 39°37' W 071°32'4 1.8 20.6
2014-Oct-25 17:00N 39°40' W 071°31'0 0.0 20.6
2014-Oct-25 16:00N 39°40' W 071°31'1 0.1 20.6
2014-Oct-25 11:00N 39°40' W 071°32'0 0.2 20.6
2014-Oct-25 10:00N 39°40' W 071°32'0 0.4 20.6
2014-Oct-25 09:00N 39°40' W 071°31'0 0.3 20.6
2014-Oct-25 08:00N 39°40' W 071°31'6 2.0 20.6
2014-Oct-25 05:00N 39°44' W 071°26'0 0.0 20.7
2014-Oct-25 03:00N 39°44' W 071°26'0 0.0 20.7
2014-Oct-25 00:00N 39°44' W 071°26'0 0.0 20.8
2014-Oct-24 23:00N 39°44' W 071°26'2 1.2 20.8
2014-Oct-24 21:00N 39°47' W 071°26'0 0.0 20.8
2014-Oct-24 18:00N 39°47' W 071°26'1 0.9 20.8
2014-Oct-24 17:00N 39°48' W 071°25'1 1.0 20.8
2014-Oct-24 16:00N 39°47' W 071°24'0 0.0 20.8
2014-Oct-24 14:00N 39°47' W 071°24'0 0.0 20.9
2014-Oct-24 13:00N 39°47' W 071°24'1 0.4 20.9
2014-Oct-24 11:00N 39°47' W 071°23'1 1.4 20.9
2014-Oct-24 10:00N 39°47' W 071°21'1 0.6 20.9
2014-Oct-24 09:00N 39°48' W 071°21'0 0.3 20.9
2014-Oct-24 08:00N 39°48' W 071°21'4 0.7 20.9
2014-Oct-24 02:00N 39°52' W 071°19'2 1.0 21.0
2014-Oct-24 00:00N 39°52' W 071°16'0 0.0 21.0
2014-Oct-23 22:00N 39°52' W 071°16'1 0.4 21.1
2014-Oct-23 20:00N 39°53' W 071°15'2 1.7 21.1
2014-Oct-23 19:00N 39°54' W 071°14'0 0.0 21.1
2014-Oct-23 18:00N 39°54' W 071°14'0 0.1 21.1
2014-Oct-23 14:00N 39°54' W 071°13'1 0.3 21.0
2014-Oct-23 10:00N 39°55' W 071°12'1 0.5 21.2
2014-Oct-23 08:00N 39°55' W 071°11'1 0.4 21.2
2014-Oct-23 06:00N 39°56' W 071°12'1 0.1 21.2
2014-Oct-23 02:00N 39°56' W 071°12'2 0.7 21.2
2014-Oct-22 23:00N 39°55' W 071°10'3 2.9 21.3
2014-Oct-22 22:00N 39°55' W 071°06'0 0.0 21.3
2014-Oct-22 20:00N 39°55' W 071°06'0 0.0 21.3
2014-Oct-22 17:00N 39°55' W 071°06'3 0.4 21.3
2014-Oct-22 10:00N 39°55' W 071°02'0 0.1 21.4
2014-Oct-22 09:00N 39°55' W 071°02'0 0.0 21.4
2014-Oct-22 08:00N 39°55' W 071°02'1 0.6 21.4
2014-Oct-22 07:00N 39°55' W 071°02'0 0.1 21.4
2014-Oct-22 01:00N 39°55' W 071°02'1 0.8 21.5
2014-Oct-22 00:00N 39°55' W 071°01'1 0.4 21.5
2014-Oct-21 22:00N 39°55' W 070°59'0 0.0 21.5
2014-Oct-21 21:00N 39°55' W 070°59'1 0.7 21.5
2014-Oct-21 20:00N 39°56' W 070°59'0 0.0 21.5
2014-Oct-21 18:00N 39°56' W 070°59'   21.5
Track history (hours):
 
Tides and Currents Weather Stations Pressure Air Temp Water Temp Dewpoint Dewpoint Depression Visibility Wind Speed Wind Dir Waves Ship Positions

Drifting buoy 41609

Last reported at 2014-Oct-31 18:00 UTC. Time now 2014-Nov-01 02:39 UTC.
Position N 39°40' W 071°19'.

Water temperature 19.9 ° C

Date/timePositionNaut miles runAvg speedWind from/ knotsBaromVisibWave heightAir tempDewpointWater temp
2014-Oct-31 18:00N 39°40' W 071°19'0 0.3 19.9
2014-Oct-31 17:00N 39°40' W 071°19'0 0.1 19.9
2014-Oct-31 16:00N 39°40' W 071°20'0 0.3 19.9
2014-Oct-31 15:00N 39°40' W 071°20'0 0.0 19.9
2014-Oct-31 14:00N 39°40' W 071°20'2 0.4 19.9
2014-Oct-31 10:00N 39°38' W 071°21'0 0.2 19.9
2014-Oct-31 09:00N 39°39' W 071°21'1 0.5 19.9
2014-Oct-31 08:00N 39°38' W 071°21'0 0.4 19.9
2014-Oct-31 07:00N 39°39' W 071°21'0 0.0 19.9
2014-Oct-31 02:00N 39°39' W 071°21'1 1.3 19.9
2014-Oct-31 01:00N 39°38' W 071°23'0 0.0 20.0
2014-Oct-31 00:00N 39°38' W 071°23'0 0.0 20.0
2014-Oct-30 23:00N 39°38' W 071°23'0 0.2 20.0
2014-Oct-30 22:00N 39°38' W 071°23'2 1.0 20.0
2014-Oct-30 20:00N 39°37' W 071°25'2 0.9 20.0
2014-Oct-30 18:00N 39°36' W 071°26'0 0.0 20.0
2014-Oct-30 17:00N 39°36' W 071°26'0 0.0 20.0
2014-Oct-30 16:00N 39°36' W 071°26'2 1.0 20.0
2014-Oct-30 14:00N 39°34' W 071°26'0 0.0 20.0
2014-Oct-30 13:00N 39°34' W 071°26'0 0.1 20.0
2014-Oct-30 11:00N 39°34' W 071°25'0 0.4 20.0
2014-Oct-30 10:00N 39°34' W 071°25'0 0.2 20.0
2014-Oct-30 09:00N 39°34' W 071°25'1 1.5 20.0
2014-Oct-30 08:00N 39°33' W 071°27'0 0.0 20.0
2014-Oct-30 07:00N 39°33' W 071°27'0 0.0 20.0
2014-Oct-30 00:00N 39°33' W 071°27'1 0.9 20.0
2014-Oct-29 23:00N 39°32' W 071°27'0 0.0 20.0
2014-Oct-29 22:00N 39°32' W 071°27'2 0.4 20.0
2014-Oct-29 17:00N 39°31' W 071°28'0 0.3 20.0
2014-Oct-29 16:00N 39°30' W 071°27'0 0.0 20.0
2014-Oct-29 15:00N 39°30' W 071°27'1 0.3 20.0
2014-Oct-29 11:00N 39°31' W 071°29'1 0.7 19.9
2014-Oct-29 10:00N 39°31' W 071°30'1 0.7 19.9
2014-Oct-29 09:00N 39°30' W 071°31'2 1.2 19.9
2014-Oct-29 07:00N 39°28' W 071°31'0 0.0 19.9
2014-Oct-29 05:00N 39°28' W 071°31'1 0.2 19.9
2014-Oct-29 02:00N 39°27' W 071°31'1 0.9 20.0
2014-Oct-29 01:00N 39°28' W 071°30'2 1.5 20.0
2014-Oct-29 00:00N 39°28' W 071°32'0 0.0 20.0
2014-Oct-28 23:00N 39°28' W 071°32'0 0.0 20.0
2014-Oct-28 22:00N 39°28' W 071°32'1 1.0 20.0
2014-Oct-28 21:00N 39°27' W 071°33'1 0.3 20.0
2014-Oct-28 19:00N 39°27' W 071°34'0 0.0 20.0
2014-Oct-28 18:00N 39°27' W 071°34'0 0.0 20.0
2014-Oct-28 16:00N 39°27' W 071°34'1 0.7 20.0
2014-Oct-28 14:00N 39°26' W 071°35'0 0.0 20.0
2014-Oct-28 13:00N 39°26' W 071°35'0 0.2 20.0
2014-Oct-28 11:00N 39°26' W 071°36'0 0.4 19.9
2014-Oct-28 10:00N 39°26' W 071°36'0 0.3 20.0
2014-Oct-28 09:00N 39°25' W 071°36'0 0.5 19.9
2014-Oct-28 08:00N 39°25' W 071°36'1 1.1 20.0
2014-Oct-28 07:00N 39°24' W 071°35'0 0.0 20.0
2014-Oct-28 03:00N 39°24' W 071°35'0 0.4 20.0
2014-Oct-28 02:00N 39°25' W 071°35'0 0.0 20.0
2014-Oct-28 01:00N 39°25' W 071°35'1 0.3 20.0
2014-Oct-27 23:00N 39°25' W 071°35'1 0.7 20.0
2014-Oct-27 22:00N 39°26' W 071°35'0 0.4 20.0
2014-Oct-27 21:00N 39°26' W 071°36'1 0.7 20.0
2014-Oct-27 20:00N 39°26' W 071°37'0 0.3 20.0
2014-Oct-27 19:00N 39°26' W 071°36'1 1.0 20.1
2014-Oct-27 18:00N 39°25' W 071°38'0 0.0 20.0
2014-Oct-27 17:00N 39°25' W 071°38'0 0.2 20.0
2014-Oct-27 15:00N 39°25' W 071°37'0 0.4 20.0
2014-Oct-27 14:00N 39°25' W 071°37'0 0.1 20.0
2014-Oct-27 11:00N 39°25' W 071°37'1 0.6 20.0
2014-Oct-27 09:00N 39°27' W 071°37'0 0.0 20.0
2014-Oct-27 08:00N 39°27' W 071°37'1 0.5 20.1
2014-Oct-27 06:00N 39°27' W 071°37'0 0.0 20.1
2014-Oct-27 05:00N 39°27' W 071°37'1 0.2 20.1
2014-Oct-27 01:00N 39°28' W 071°37'1 0.6 20.2
2014-Oct-26 23:00N 39°29' W 071°37'0 0.4 20.3
2014-Oct-26 22:00N 39°30' W 071°37'0 0.4 20.3
2014-Oct-26 21:00N 39°30' W 071°37'0 0.0 20.3
2014-Oct-26 20:00N 39°30' W 071°37'3 2.6 20.3
2014-Oct-26 19:00N 39°32' W 071°36'0 0.0 20.3
2014-Oct-26 17:00N 39°32' W 071°36'2 0.6 20.3
2014-Oct-26 14:00N 39°33' W 071°33'0 0.0 20.4
2014-Oct-26 11:00N 39°33' W 071°33'1 0.7 20.4
2014-Oct-26 10:00N 39°34' W 071°33'2 0.5 20.4
2014-Oct-26 07:00N 39°35' W 071°32'4 0.9 20.4
2014-Oct-26 03:00N 39°38' W 071°34'0 0.0 20.5
2014-Oct-26 02:00N 39°38' W 071°34'0 0.0 20.5
2014-Oct-26 01:00N 39°38' W 071°34'2 0.5 20.5
2014-Oct-25 21:00N 39°37' W 071°32'0 0.0 20.6
2014-Oct-25 20:00N 39°37' W 071°32'0 0.0 20.6
2014-Oct-25 19:00N 39°37' W 071°32'4 1.8 20.6
2014-Oct-25 17:00N 39°40' W 071°31'0 0.0 20.6
2014-Oct-25 16:00N 39°40' W 071°31'1 0.1 20.6
2014-Oct-25 11:00N 39°40' W 071°32'0 0.2 20.6
2014-Oct-25 10:00N 39°40' W 071°32'0 0.4 20.6
2014-Oct-25 09:00N 39°40' W 071°31'0 0.3 20.6
2014-Oct-25 08:00N 39°40' W 071°31'6 2.0 20.6
2014-Oct-25 05:00N 39°44' W 071°26'0 0.0 20.7
2014-Oct-25 03:00N 39°44' W 071°26'0 0.0 20.7
2014-Oct-25 00:00N 39°44' W 071°26'0 0.0 20.8
2014-Oct-24 23:00N 39°44' W 071°26'2 1.2 20.8
2014-Oct-24 21:00N 39°47' W 071°26'0 0.0 20.8
2014-Oct-24 18:00N 39°47' W 071°26'1 0.9 20.8
2014-Oct-24 17:00N 39°48' W 071°25'1 1.0 20.8
2014-Oct-24 16:00N 39°47' W 071°24'0 0.0 20.8
2014-Oct-24 14:00N 39°47' W 071°24'0 0.0 20.9
2014-Oct-24 13:00N 39°47' W 071°24'1 0.4 20.9
2014-Oct-24 11:00N 39°47' W 071°23'1 1.4 20.9
2014-Oct-24 10:00N 39°47' W 071°21'1 0.6 20.9
2014-Oct-24 09:00N 39°48' W 071°21'0 0.3 20.9
2014-Oct-24 08:00N 39°48' W 071°21'4 0.7 20.9
2014-Oct-24 02:00N 39°52' W 071°19'2 1.0 21.0
2014-Oct-24 00:00N 39°52' W 071°16'0 0.0 21.0
2014-Oct-23 22:00N 39°52' W 071°16'1 0.4 21.1
2014-Oct-23 20:00N 39°53' W 071°15'2 1.7 21.1
2014-Oct-23 19:00N 39°54' W 071°14'0 0.0 21.1
2014-Oct-23 18:00N 39°54' W 071°14'0 0.1 21.1
2014-Oct-23 14:00N 39°54' W 071°13'1 0.3 21.0
2014-Oct-23 10:00N 39°55' W 071°12'1 0.5 21.2
2014-Oct-23 08:00N 39°55' W 071°11'1 0.4 21.2
2014-Oct-23 06:00N 39°56' W 071°12'1 0.1 21.2
2014-Oct-23 02:00N 39°56' W 071°12'2 0.7 21.2
2014-Oct-22 23:00N 39°55' W 071°10'3 2.9 21.3
2014-Oct-22 22:00N 39°55' W 071°06'0 0.0 21.3
2014-Oct-22 20:00N 39°55' W 071°06'0 0.0 21.3
2014-Oct-22 17:00N 39°55' W 071°06'3 0.4 21.3
2014-Oct-22 10:00N 39°55' W 071°02'0 0.1 21.4
2014-Oct-22 09:00N 39°55' W 071°02'0 0.0 21.4
2014-Oct-22 08:00N 39°55' W 071°02'1 0.6 21.4
2014-Oct-22 07:00N 39°55' W 071°02'0 0.1 21.4
2014-Oct-22 01:00N 39°55' W 071°02'1 0.8 21.5
2014-Oct-22 00:00N 39°55' W 071°01'1 0.4 21.5
2014-Oct-21 22:00N 39°55' W 070°59'0 0.0 21.5
2014-Oct-21 21:00N 39°55' W 070°59'1 0.7 21.5
2014-Oct-21 20:00N 39°56' W 070°59'0 0.0 21.5
2014-Oct-21 18:00N 39°56' W 070°59'   21.5

Dump ship's entire track history